This is the latest recevied weather packets stored in our database for station/object KF5JED-13. If no packets are shown the sender has not sent any weather packets the latest 10 day(s).
| Time | Temp. | Humidity | Pressure | Rain* | Wind** | Luminosity | Snow |
|---|---|---|---|---|---|---|---|
| 1778348396 | 30° C | 26% | 1011.8 hPa | 0 mm | - | 840 W/m² | - |
| 1778348091 | 29.44° C | 28% | 1011.9 hPa | 0 mm | - | 836 W/m² | - |
| 1778347788 | 28.89° C | 28% | 1011.8 hPa | 0 mm | - | 828 W/m² | - |
| 1778347485 | 28.33° C | 30% | 1012 hPa | 0 mm | - | 820 W/m² | - |
| 1778347181 | 28.33° C | 29% | 1012.2 hPa | 0 mm | - | 819 W/m² | - |
| 1778346877 | 28.33° C | 30% | 1012.1 hPa | 0 mm | - | 810 W/m² | - |
| 1778346573 | 28.89° C | 29% | 1012.1 hPa | 0 mm | - | 804 W/m² | - |
| 1778346269 | 28.33° C | 30% | 1011.9 hPa | 0 mm | - | 796 W/m² | - |
| 1778345965 | 27.78° C | 32% | 1012.1 hPa | 0 mm | - | 786 W/m² | - |
| 1778345659 | 27.78° C | 33% | 1012.3 hPa | 0 mm | - | 778 W/m² | - |
| 1778345355 | 27.78° C | 32% | 1012.3 hPa | 0 mm | - | 765 W/m² | - |
| 1778345051 | 27.22° C | 32% | 1012.3 hPa | 0 mm | - | 764 W/m² | - |
| 1778344747 | 27.78° C | 32% | 1012.5 hPa | 0 mm | - | 752 W/m² | - |
| 1778344444 | 26.67° C | 34% | 1012.6 hPa | 0 mm | - | 745 W/m² | - |
| 1778344143 | 26.67° C | 35% | 1012.8 hPa | 0 mm | - | 738 W/m² | - |
| 1778343842 | 26.67° C | 35% | 1012.6 hPa | 0 mm | - | 727 W/m² | - |
| 1778343538 | 26.11° C | 37% | 1012.8 hPa | 0 mm | - | 711 W/m² | - |
| 1778343234 | 26.67° C | 36% | 1012.9 hPa | 0 mm | - | 706 W/m² | - |
| 1778342930 | 26.11° C | 36% | 1012.8 hPa | 0 mm | - | 696 W/m² | - |
| 1778342626 | 26.11° C | 37% | 1013 hPa | 0 mm | - | 682 W/m² | - |
| 1778342321 | 25.56° C | 39% | 1012.9 hPa | 0 mm | - | 666 W/m² | - |
| 1778342018 | 25° C | 38% | 1013 hPa | 0 mm | - | 659 W/m² | - |
| 1778341714 | 25.56° C | 36% | 1012.9 hPa | 0 mm | - | 636 W/m² | - |
| 1778341411 | 25.56° C | 40% | 1013.2 hPa | 0 mm | - | 634 W/m² | - |
| 1778341108 | 25° C | 42% | 1013.1 hPa | 0 mm | - | 614 W/m² | - |
* Rain latest hour (hover to see other rain measurements)
** Current wind speed in m/s (hover to see current wind gust speed)